Time;durP1;ratioP1;P1;durP2;ratioP2;P2;SDS_P1;SDS_P2;PMS_P1;PMS_P2;Temp;Humidity;BMP_temperature;BMP_pressure;BME280_temperature;BME280_humidity;BME280_pressure;Samples;Min_cycle;Max_cycle;Signal;HPM_P1;HPM_P2
2022/05/23 00:01:07;;;;;;;7.32;2.33;;;19.60;53.30;;;;;;5132275;27;20400;-65
2022/05/23 00:03:35;;;;;;;6.38;2.10;;;19.50;53.30;;;;;;5117624;27;20023;-65
2022/05/23 00:06:01;;;;;;;4.60;1.70;;;19.50;53.30;;;;;;5125566;27;20058;-65
2022/05/23 00:08:28;;;;;;;5.15;2.03;;;19.50;53.30;;;;;;5116718;27;20411;-65
2022/05/23 00:10:54;;;;;;;6.53;1.80;;;19.50;53.40;;;;;;5134308;27;20076;-65
2022/05/23 00:13:20;;;;;;;5.32;2.00;;;19.50;53.50;;;;;;5120643;27;20059;-65
2022/05/23 00:15:45;;;;;;;4.68;1.88;;;19.50;53.50;;;;;;5131474;27;20019;-65
2022/05/23 00:18:11;;;;;;;5.35;1.70;;;19.50;53.50;;;;;;5124165;27;20019;-65
2022/05/23 00:20:36;;;;;;;5.57;1.80;;;19.50;53.50;;;;;;5131783;27;20084;-65
2022/05/23 00:23:02;;;;;;;4.88;1.80;;;19.40;53.40;;;;;;5128308;27;20028;-65
2022/05/23 00:25:28;;;;;;;7.72;1.92;;;19.40;53.40;;;;;;5125642;27;20034;-65
2022/05/23 00:27:53;;;;;;;7.63;2.10;;;19.30;53.40;;;;;;5122993;27;20031;-65
2022/05/23 00:30:23;;;;;;;6.88;2.22;;;19.40;53.50;;;;;;5123049;27;20110;-65
2022/05/23 00:35:34;;;;;;;5.72;1.80;;;19.40;53.60;;;;;;5126033;27;20030;-65
2022/05/23 00:38:00;;;;;;;5.93;2.15;;;19.30;53.50;;;;;;5116885;27;20048;-66
2022/05/23 00:40:43;;;;;;;6.07;1.65;;;19.30;53.60;;;;;;5119202;27;20440;-65
2022/05/23 00:43:21;;;;;;;4.90;1.92;;;19.30;53.60;;;;;;5124792;27;20038;-65
2022/05/23 00:45:53;;;;;;;5.57;2.10;;;19.30;53.70;;;;;;5120559;27;20031;-65
2022/05/23 00:48:23;;;;;;;5.13;1.77;;;19.30;53.80;;;;;;5117213;27;20063;-65
2022/05/23 00:50:55;;;;;;;4.80;1.92;;;19.30;53.80;;;;;;5112638;28;20035;-65
2022/05/23 00:53:30;;;;;;;4.18;1.73;;;19.20;53.70;;;;;;5126688;27;20391;-65
2022/05/23 00:55:57;;;;;;;5.68;1.85;;;19.20;53.80;;;;;;5113342;28;20019;-65
2022/05/23 00:58:29;;;;;;;4.40;1.80;;;19.20;53.90;;;;;;5128109;28;20447;-65
2022/05/23 01:00:58;;;;;;;7.13;2.00;;;19.20;54.00;;;;;;5113743;28;20397;-65
2022/05/23 01:03:24;;;;;;;5.63;2.20;;;19.20;54.10;;;;;;5124787;28;20032;-65
2022/05/23 01:05:54;;;;;;;7.65;2.10;;;19.20;54.20;;;;;;5127944;28;20091;-65
2022/05/23 01:08:21;;;;;;;8.40;2.00;;;19.10;54.30;;;;;;5127225;28;20471;-65
2022/05/23 01:10:47;;;;;;;6.97;2.20;;;19.10;54.30;;;;;;5124263;28;20023;-66
2022/05/23 01:13:14;;;;;;;5.03;2.20;;;19.10;54.40;;;;;;5130973;28;20027;-66
2022/05/23 01:15:47;;;;;;;9.27;1.85;;;19.10;54.50;;;;;;5119604;28;20137;-66
2022/05/23 01:18:13;;;;;;;6.60;2.20;;;19.10;54.60;;;;;;5122705;28;20019;-65
2022/05/23 01:20:39;;;;;;;4.97;1.73;;;19.10;54.60;;;;;;5121213;28;20027;-65
2022/05/23 01:23:22;;;;;;;5.85;2.28;;;19.00;54.50;;;;;;5130769;28;20503;-65
2022/05/23 01:26:07;;;;;;;5.47;1.75;;;19.00;54.70;;;;;;5125305;28;20023;-65
2022/05/23 01:28:42;;;;;;;5.25;1.80;;;19.00;54.70;;;;;;5122462;28;20031;-65
2022/05/23 01:31:12;;;;;;;5.93;2.10;;;19.00;54.80;;;;;;5122748;28;20065;-65
2022/05/23 01:33:39;;;;;;;5.57;1.83;;;19.00;54.90;;;;;;5125128;27;20024;-65
2022/05/23 01:36:09;;;;;;;8.07;2.25;;;19.00;54.90;;;;;;5115789;28;20182;-65
2022/05/23 01:38:34;;;;;;;6.85;2.28;;;19.00;55.00;;;;;;5112884;28;20110;-65
2022/05/23 01:41:07;;;;;;;5.85;1.88;;;19.00;55.70;;;;;;5122452;28;20046;-65
2022/05/23 01:43:35;;;;;;;5.45;1.90;;;19.00;55.20;;;;;;5127572;28;20055;-66
2022/05/23 01:46:20;;;;;;;7.03;2.20;;;18.90;55.30;;;;;;5121818;28;20089;-65
2022/05/23 01:49:00;;;;;;;6.35;2.13;;;18.90;55.50;;;;;;5112918;28;20348;-65
2022/05/23 01:51:26;;;;;;;6.70;2.28;;;18.90;55.50;;;;;;5115140;28;20043;-65
2022/05/23 01:53:52;;;;;;;4.15;1.83;;;18.90;55.60;;;;;;5124031;27;20123;-65
2022/05/23 01:56:17;;;;;;;4.13;1.80;;;18.80;55.70;;;;;;5121449;27;20115;-65
2022/05/23 02:01:33;;;;;;;8.23;2.20;;;18.80;55.70;;;;;;5117399;27;19968;-65
2022/05/23 02:03:59;;;;;;;6.40;2.15;;;18.80;55.90;;;;;;5124494;27;20531;-65
2022/05/23 02:06:35;;;;;;;7.07;2.28;;;18.80;56.00;;;;;;5130670;27;20053;-65
2022/05/23 02:09:07;;;;;;;9.77;2.10;;;18.70;56.00;;;;;;5116905;28;20055;-65
2022/05/23 02:11:38;;;;;;;6.95;2.35;;;18.70;56.00;;;;;;5121890;27;20024;-65
2022/05/23 02:14:04;;;;;;;7.72;1.90;;;18.70;56.10;;;;;;5124238;27;20026;-65
2022/05/23 02:16:38;;;;;;;6.13;2.20;;;18.70;56.20;;;;;;5112074;27;20102;-65
2022/05/23 02:19:04;;;;;;;5.07;1.90;;;18.70;56.30;;;;;;5117046;27;20123;-65
2022/05/23 02:21:30;;;;;;;7.38;2.20;;;18.70;56.50;;;;;;5108837;27;20026;-65
2022/05/23 02:23:56;;;;;;;4.93;2.10;;;18.60;56.50;;;;;;5128899;27;20438;-65
2022/05/23 02:26:22;;;;;;;6.68;2.20;;;18.60;56.70;;;;;;5125153;27;20027;-65
2022/05/23 02:28:52;;;;;;;6.00;2.13;;;18.60;56.80;;;;;;5136930;27;20024;-65
2022/05/23 02:31:25;;;;;;;6.38;1.88;;;18.60;56.80;;;;;;5123010;27;20023;-65
2022/05/23 02:33:55;;;;;;;8.50;2.60;;;18.50;56.90;;;;;;5123245;27;20026;-65
2022/05/23 02:36:31;;;;;;;6.30;2.15;;;18.50;57.00;;;;;;5116743;27;20024;-65
2022/05/23 02:38:58;;;;;;;6.15;2.22;;;18.50;57.10;;;;;;5115597;27;20066;-65
2022/05/23 02:41:24;;;;;;;7.80;2.33;;;18.50;57.20;;;;;;5104759;27;20019;-65
2022/05/23 02:43:50;;;;;;;5.38;1.98;;;18.50;57.60;;;;;;5104977;27;20163;-65
2022/05/23 02:46:20;;;;;;;8.07;2.88;;;18.50;57.40;;;;;;5123654;27;20023;-65
2022/05/23 02:48:47;;;;;;;6.03;2.10;;;18.40;57.30;;;;;;5136588;27;20118;-65
2022/05/23 02:51:12;;;;;;;6.60;2.28;;;18.40;57.50;;;;;;5134103;27;20156;-65
2022/05/23 02:53:40;;;;;;;6.03;2.38;;;18.40;57.50;;;;;;5131532;27;20368;-65
2022/05/23 02:56:06;;;;;;;4.35;2.17;;;18.40;57.50;;;;;;5118178;27;20110;-65
2022/05/23 02:58:32;;;;;;;5.65;2.47;;;18.40;57.60;;;;;;5137629;27;20038;-66
2022/05/23 03:00:57;;;;;;;6.88;2.60;;;18.30;57.60;;;;;;5116533;27;20033;-65
2022/05/23 03:03:27;;;;;;;6.90;2.08;;;18.30;57.70;;;;;;5102767;27;20028;-65
2022/05/23 03:05:57;;;;;;;7.20;2.78;;;18.30;57.70;;;;;;5121270;27;20031;-65
2022/05/23 03:08:24;;;;;;;6.00;2.65;;;18.30;57.80;;;;;;5117115;27;20417;-65
2022/05/23 03:10:52;;;;;;;5.93;2.40;;;18.30;57.80;;;;;;5115660;27;20027;-65
2022/05/23 03:13:20;;;;;;;5.13;2.50;;;18.30;58.00;;;;;;5122628;27;20359;-65
2022/05/23 03:15:45;;;;;;;5.13;2.20;;;18.20;57.90;;;;;;5127827;27;20050;-65
2022/05/23 03:18:11;;;;;;;6.53;2.70;;;18.20;58.00;;;;;;5119650;27;20437;-65
2022/05/23 03:20:41;;;;;;;8.13;2.70;;;18.20;58.10;;;;;;5117097;27;20027;-65
2022/05/23 03:26:58;;;;;;;9.15;3.08;;;18.20;58.40;;;;;;5117442;27;20030;-65
2022/05/23 03:29:00;;;;;;;9.10;2.80;;;18.20;58.40;;;;;;5127904;27;20031;-65
2022/05/23 03:31:27;;;;;;;7.35;2.42;;;18.10;58.40;;;;;;5122374;27;20053;-65
2022/05/23 03:33:53;;;;;;;10.63;2.85;;;18.20;58.50;;;;;;5113563;28;20027;-65
2022/05/23 03:36:20;;;;;;;6.95;2.75;;;18.10;58.50;;;;;;5113623;27;20019;-65
2022/05/23 03:38:46;;;;;;;5.03;2.42;;;18.10;58.60;;;;;;5117424;27;20048;-65
2022/05/23 03:41:12;;;;;;;6.18;2.70;;;18.10;59.30;;;;;;5113267;28;20088;-65
2022/05/23 03:43:38;;;;;;;5.45;2.80;;;18.10;58.80;;;;;;5114311;27;20478;-65
2022/05/23 03:46:12;;;;;;;5.72;2.55;;;18.10;59.00;;;;;;5113045;28;20077;-65
2022/05/23 03:48:39;;;;;;;7.43;3.03;;;18.10;59.00;;;;;;5114146;27;20024;-65
2022/05/23 03:51:06;;;;;;;5.57;2.60;;;18.10;59.00;;;;;;5096127;28;20058;-65
2022/05/23 03:53:33;;;;;;;6.25;2.67;;;18.10;59.00;;;;;;5105668;27;20050;-65
2022/05/23 03:56:04;;;;;;;8.48;2.70;;;18.10;59.20;;;;;;5132968;27;20384;-65
2022/05/23 03:58:34;;;;;;;7.00;2.75;;;18.00;59.20;;;;;;5131079;27;20019;-65
2022/05/23 04:01:30;;;;;;;7.47;2.83;;;18.00;59.20;;;;;;5098498;27;20036;-65
2022/05/23 04:04:11;;;;;;;7.82;2.92;;;18.00;59.50;;;;;;5120295;27;20018;-65
2022/05/23 04:06:40;;;;;;;7.70;2.70;;;18.00;59.50;;;;;;5123608;27;20030;-65
2022/05/23 04:09:07;;;;;;;5.97;2.80;;;18.00;59.60;;;;;;5114560;27;20043;-65
2022/05/23 04:11:36;;;;;;;7.40;3.08;;;18.00;59.70;;;;;;5114234;27;20034;-65
2022/05/23 04:14:03;;;;;;;6.82;2.90;;;18.00;59.70;;;;;;5112196;28;20092;-65
2022/05/23 04:16:33;;;;;;;6.88;2.92;;;18.00;59.90;;;;;;5114005;27;20020;-65
2022/05/23 04:18:58;;;;;;;8.77;3.15;;;18.00;60.00;;;;;;5132499;27;20075;-65
2022/05/23 04:21:24;;;;;;;7.20;2.95;;;18.00;60.00;;;;;;5125532;27;20016;-66
2022/05/23 04:23:52;;;;;;;8.27;2.92;;;18.00;60.10;;;;;;5115246;27;20118;-66
2022/05/23 04:26:18;;;;;;;8.60;3.33;;;18.10;60.10;;;;;;5100253;27;20477;-66
2022/05/23 04:28:44;;;;;;;7.45;2.88;;;18.10;60.10;;;;;;5117956;27;20050;-65
2022/05/23 04:31:10;;;;;;;6.72;3.00;;;18.10;60.20;;;;;;5115246;27;20456;-65
2022/05/23 04:36:42;;;;;;;7.93;3.08;;;18.10;60.30;;;;;;5125222;27;20551;-68
2022/05/23 04:39:08;;;;;;;9.05;3.55;;;18.10;60.20;;;;;;5122324;27;20201;-64
2022/05/23 04:41:36;;;;;;;7.60;3.00;;;18.10;60.20;;;;;;5124444;27;20027;-64
2022/05/23 04:44:02;;;;;;;8.95;3.53;;;18.20;60.20;;;;;;5134239;27;20050;-64
2022/05/23 04:46:28;;;;;;;7.10;2.92;;;18.20;60.20;;;;;;5123380;27;20015;-64
2022/05/23 04:51:54;;;;;;;6.43;3.15;;;18.20;60.10;;;;;;5116053;28;20040;-64
2022/05/23 04:54:26;;;;;;;6.47;3.13;;;18.20;60.10;;;;;;5114188;28;20080;-64
2022/05/23 04:56:53;;;;;;;6.50;3.63;;;18.30;60.10;;;;;;5106850;28;20356;-64
2022/05/23 04:59:29;;;;;;;6.50;3.22;;;18.30;60.10;;;;;;5117000;28;20027;-64
2022/05/23 05:01:54;;;;;;;8.57;3.67;;;18.30;60.20;;;;;;5117341;28;20023;-64
2022/05/23 05:04:20;;;;;;;7.18;3.00;;;18.40;60.20;;;;;;5132548;28;20042;-64
2022/05/23 05:06:46;;;;;;;6.85;3.42;;;18.40;60.20;;;;;;5129866;28;20024;-64
2022/05/23 05:09:12;;;;;;;8.50;3.85;;;18.40;60.30;;;;;;5123496;27;20020;-64
2022/05/23 05:11:38;;;;;;;9.20;3.92;;;18.50;60.20;;;;;;5125384;28;20036;-64
2022/05/23 05:14:27;;;;;;;9.02;4.22;;;18.50;60.10;;;;;;5126070;28;20352;-64
2022/05/23 05:16:55;;;;;;;5.45;3.00;;;18.60;60.20;;;;;;5116048;28;20043;-64
2022/05/23 05:19:21;;;;;;;7.40;3.60;;;18.60;60.20;;;;;;5131985;28;20091;-64
2022/05/23 05:21:53;;;;;;;7.35;3.70;;;18.60;60.10;;;;;;5118091;28;20032;-64
2022/05/23 05:24:54;;;;;;;7.40;3.53;;;18.70;60.10;;;;;;5128337;27;20172;-64
2022/05/23 05:27:37;;;;;;;8.23;3.53;;;18.80;59.90;;;;;;5129697;27;20475;-64
2022/05/23 05:30:06;;;;;;;9.68;3.75;;;18.90;59.80;;;;;;5139249;27;20023;-64
2022/05/23 05:32:41;;;;;;;8.13;3.78;;;18.90;59.80;;;;;;5136065;27;20115;-64
2022/05/23 05:35:22;;;;;;;9.07;3.97;;;19.00;59.80;;;;;;5126524;27;20019;-64
2022/05/23 05:38:08;;;;;;;8.32;3.78;;;19.00;59.90;;;;;;5129316;27;20092;-64
2022/05/23 05:40:35;;;;;;;8.45;4.38;;;19.10;59.90;;;;;;5118795;27;20020;-66
2022/05/23 05:43:16;;;;;;;7.75;4.05;;;19.10;59.80;;;;;;5125383;27;20031;-64
2022/05/23 05:45:45;;;;;;;12.38;4.72;;;19.20;59.80;;;;;;5108018;28;20024;-63
2022/05/23 05:48:40;;;;;;;9.25;4.25;;;19.30;59.60;;;;;;5103471;28;20451;-64
2022/05/23 05:51:08;;;;;;;7.70;4.10;;;19.40;59.40;;;;;;5132195;27;20034;-63
2022/05/23 05:53:35;;;;;;;8.38;4.50;;;19.50;59.30;;;;;;5125006;27;20468;-64
2022/05/23 05:56:09;;;;;;;7.78;4.05;;;19.60;59.60;;;;;;5111797;27;20367;-64
2022/05/23 05:58:37;;;;;;;10.15;3.83;;;19.70;59.40;;;;;;5134657;27;20027;-64
2022/05/23 06:01:03;;;;;;;7.78;4.20;;;19.80;59.40;;;;;;5135580;27;20027;-64
2022/05/23 06:03:34;;;;;;;8.75;4.35;;;19.90;59.20;;;;;;5122773;27;20036;-64
2022/05/23 06:11:41;;;;;;;8.05;4.30;;;20.00;58.90;;;;;;5122275;27;20478;-64
2022/05/23 06:14:17;;;;;;;7.65;4.18;;;20.00;58.90;;;;;;5116082;27;20039;-63
2022/05/23 06:16:53;;;;;;;9.15;4.95;;;20.00;59.10;;;;;;5117112;27;20069;-63
2022/05/23 06:19:24;;;;;;;8.88;4.97;;;20.00;59.10;;;;;;5129225;27;20015;-65
2022/05/23 06:21:58;;;;;;;11.00;4.70;;;19.90;59.20;;;;;;5119857;27;22266;-66
2022/05/23 06:24:24;;;;;;;9.25;4.90;;;19.90;59.20;;;;;;5130280;27;20024;-65
2022/05/23 06:26:57;;;;;;;8.38;4.45;;;19.90;59.20;;;;;;5123179;27;20072;-65
2022/05/23 06:29:57;;;;;;;7.85;4.55;;;19.90;59.20;;;;;;5127495;27;20110;-65
2022/05/23 06:32:31;;;;;;;11.02;4.72;;;20.00;59.30;;;;;;5124128;27;20031;-65
2022/05/23 06:34:57;;;;;;;11.13;5.07;;;20.00;59.20;;;;;;5119658;27;20019;-65
2022/05/23 06:37:23;;;;;;;9.18;4.80;;;20.00;59.10;;;;;;5118877;27;21967;-64
2022/05/23 06:39:55;;;;;;;9.68;4.82;;;20.00;59.20;;;;;;5114096;27;20176;-65
2022/05/23 06:42:39;;;;;;;12.35;4.82;;;20.10;59.20;;;;;;5126108;27;20042;-64
2022/05/23 06:45:24;;;;;;;9.80;4.93;;;20.10;59.20;;;;;;5123040;27;20430;-65
2022/05/23 06:48:09;;;;;;;9.48;4.90;;;20.10;59.20;;;;;;5122634;27;20050;-65
2022/05/23 06:50:53;;;;;;;8.55;4.72;;;20.20;59.40;;;;;;5128063;27;20073;-65
2022/05/23 06:53:24;;;;;;;10.77;5.13;;;20.20;59.40;;;;;;5117996;27;20110;-65
2022/05/23 06:56:00;;;;;;;10.95;5.40;;;20.30;59.50;;;;;;5118179;27;20024;-65
2022/05/23 06:58:26;;;;;;;11.60;5.40;;;20.40;59.30;;;;;;5114258;27;20072;-65
2022/05/23 07:00:53;;;;;;;9.75;5.55;;;20.50;59.20;;;;;;5109021;27;20033;-65
2022/05/23 07:03:25;;;;;;;8.15;5.07;;;20.60;59.00;;;;;;5098714;27;20038;-65
2022/05/23 07:14:27;;;;;;;8.98;4.25;;;21.10;58.20;;;;;;5116252;27;20038;-66
2022/05/23 07:16:56;;;;;;;9.27;4.40;;;21.30;57.80;;;;;;5107943;27;20352;-66
2022/05/23 07:19:59;;;;;;;10.45;4.85;;;21.50;57.30;;;;;;5118534;27;20011;-66
2022/05/23 07:22:25;;;;;;;9.85;4.47;;;21.80;57.00;;;;;;5127371;27;20067;-66
2022/05/23 07:24:55;;;;;;;7.03;4.13;;;22.00;56.60;;;;;;5136237;27;20027;-66
2022/05/23 07:27:26;;;;;;;8.45;4.63;;;22.10;56.20;;;;;;5123646;27;20023;-65
2022/05/23 07:29:53;;;;;;;7.60;4.25;;;22.20;56.00;;;;;;5119905;27;20050;-66
2022/05/23 07:32:19;;;;;;;9.90;4.70;;;22.30;56.00;;;;;;5118965;27;20026;-66
2022/05/23 07:34:45;;;;;;;10.95;4.88;;;22.40;55.80;;;;;;5129102;27;20020;-66
2022/05/23 07:37:11;;;;;;;7.43;3.95;;;22.60;55.50;;;;;;5115195;27;20022;-66
2022/05/23 07:39:39;;;;;;;10.32;4.10;;;22.80;55.30;;;;;;5115412;27;20399;-66
2022/05/23 07:42:25;;;;;;;9.00;4.00;;;22.90;54.80;;;;;;5119752;27;20386;-66
2022/05/23 07:44:50;;;;;;;8.38;3.67;;;23.00;54.70;;;;;;5119005;27;20028;-66
2022/05/23 07:47:18;;;;;;;7.93;3.63;;;23.00;54.60;;;;;;5125322;27;20467;-66
2022/05/23 07:49:57;;;;;;;8.95;3.38;;;22.90;54.40;;;;;;5115154;27;20390;-66
2022/05/23 07:52:23;;;;;;;7.30;3.38;;;22.80;54.30;;;;;;5117056;27;20027;-66
2022/05/23 08:00:32;;;;;;;8.63;3.47;;;22.60;53.80;;;;;;5095233;27;20317;-66
2022/05/23 08:03:16;;;;;;;8.07;3.83;;;22.50;53.70;;;;;;5116170;27;20019;-66
2022/05/23 08:05:44;;;;;;;6.70;3.30;;;22.40;53.60;;;;;;5125722;27;20095;-66
2022/05/23 08:08:10;;;;;;;7.65;3.10;;;22.40;53.80;;;;;;5107306;27;20077;-66
2022/05/23 08:10:36;;;;;;;6.85;3.40;;;22.40;53.80;;;;;;5126927;27;20479;-66
2022/05/23 08:13:08;;;;;;;7.85;3.58;;;22.40;53.90;;;;;;5112710;27;20019;-66
2022/05/23 08:15:39;;;;;;;8.35;3.03;;;22.40;53.70;;;;;;5094667;27;20019;-66
2022/05/23 08:18:10;;;;;;;7.13;3.20;;;22.40;53.60;;;;;;5121727;27;20024;-66
2022/05/23 08:20:41;;;;;;;6.28;3.10;;;22.40;53.60;;;;;;5115358;27;20015;-66
2022/05/23 08:23:07;;;;;;;9.63;2.75;;;22.50;53.60;;;;;;5106303;27;20344;-66
2022/05/23 08:25:48;;;;;;;6.97;3.20;;;22.60;53.50;;;;;;5117244;27;20227;-66
2022/05/23 08:28:14;;;;;;;7.53;3.15;;;23.00;53.30;;;;;;5112789;27;20023;-64
2022/05/23 08:30:40;;;;;;;8.95;3.33;;;23.40;52.80;;;;;;5114606;27;20118;-64
2022/05/23 08:33:19;;;;;;;6.18;2.95;;;23.80;52.10;;;;;;5112286;27;20064;-65
2022/05/23 08:35:48;;;;;;;6.22;2.83;;;23.90;51.60;;;;;;5120590;27;20030;-64
2022/05/23 08:38:15;;;;;;;7.25;3.13;;;24.10;51.30;;;;;;5125508;27;20067;-65
2022/05/23 08:41:12;;;;;;;8.82;3.97;;;24.40;50.90;;;;;;5124367;27;20026;-65
2022/05/23 08:44:19;;;;;;;7.70;3.30;;;24.80;50.30;;;;;;5122294;27;20060;-65
2022/05/23 08:47:08;;;;;;;7.63;3.08;;;25.10;49.60;;;;;;5125974;27;20118;-64
2022/05/23 08:49:45;;;;;;;7.43;3.13;;;25.20;49.40;;;;;;5122409;27;20026;-65
2022/05/23 08:52:33;;;;;;;8.20;3.20;;;25.10;49.50;;;;;;5125515;27;20551;-64
2022/05/23 08:55:19;;;;;;;7.20;3.30;;;25.00;49.60;;;;;;5120676;27;20035;-65
2022/05/23 08:58:05;;;;;;;7.03;3.40;;;24.70;50.00;;;;;;5126186;28;20069;-65
2022/05/23 09:00:39;;;;;;;8.85;3.50;;;24.40;50.50;;;;;;5117615;27;20311;-65
2022/05/23 09:03:15;;;;;;;10.00;3.60;;;24.20;50.90;;;;;;5122169;27;20392;-65
2022/05/23 09:05:55;;;;;;;7.03;3.28;;;24.10;51.10;;;;;;5123847;27;20032;-65
2022/05/23 09:08:27;;;;;;;7.32;3.30;;;24.10;51.10;;;;;;5127656;27;20447;-65
2022/05/23 09:11:19;;;;;;;7.22;3.53;;;24.00;51.40;;;;;;5132207;27;20394;-65
2022/05/23 09:13:45;;;;;;;;;;;23.90;51.70;;;;;;5133255;27;20019;-65
2022/05/23 09:16:13;;;;;;;6.93;2.80;;;23.80;51.80;;;;;;5135547;27;20346;-64
2022/05/23 09:18:53;;;;;;;7.80;3.40;;;23.80;51.80;;;;;;5111796;27;20332;-65
2022/05/23 09:21:19;;;;;;;8.07;3.30;;;23.80;51.70;;;;;;5130643;27;20031;-65
2022/05/23 09:23:51;;;;;;;7.13;3.45;;;23.70;51.80;;;;;;5128683;27;20077;-65
2022/05/23 09:26:29;;;;;;;8.32;3.38;;;23.70;52.00;;;;;;5126925;27;20065;-65
2022/05/23 09:28:55;;;;;;;7.07;3.72;;;23.70;52.20;;;;;;5131216;27;20038;-65
2022/05/23 09:31:37;;;;;;;7.13;3.28;;;23.60;53.00;;;;;;5128039;27;20363;-65
2022/05/23 09:34:04;;;;;;;8.93;3.42;;;23.60;52.60;;;;;;5130586;27;20060;-65
2022/05/23 09:36:35;;;;;;;12.05;4.20;;;23.60;52.80;;;;;;5130828;27;20030;-63
2022/05/23 09:39:05;;;;;;;7.97;4.00;;;23.70;52.70;;;;;;5120594;27;20073;-63
2022/05/23 09:47:46;;;;;;;6.55;3.10;;;23.80;52.60;;;;;;5134721;27;20023;-64
2022/05/23 09:50:29;;;;;;;7.65;3.08;;;24.00;52.20;;;;;;5128345;27;20023;-63
2022/05/23 09:52:57;;;;;;;8.32;3.45;;;24.20;51.70;;;;;;5129953;27;20031;-65
2022/05/23 09:55:41;;;;;;;5.65;2.50;;;24.30;51.50;;;;;;5132508;27;20038;-66
2022/05/23 09:58:13;;;;;;;7.40;2.90;;;24.30;51.60;;;;;;5132390;27;20038;-63
2022/05/23 10:00:56;;;;;;;9.05;3.50;;;24.20;51.60;;;;;;5128776;27;20139;-65
2022/05/23 10:03:23;;;;;;;7.07;3.22;;;24.10;51.40;;;;;;5107573;27;20141;-63
2022/05/23 10:06:08;;;;;;;6.15;2.88;;;24.00;51.60;;;;;;5128125;27;20057;-64
2022/05/23 10:08:42;;;;;;;6.07;2.72;;;23.90;51.90;;;;;;5127941;27;20032;-64
2022/05/23 10:11:34;;;;;;;7.13;3.10;;;23.80;51.90;;;;;;5123709;27;20019;-64
2022/05/23 10:14:02;;;;;;;8.77;3.38;;;23.80;52.20;;;;;;5117029;27;20024;-64
2022/05/23 10:16:54;;;;;;;6.88;3.08;;;23.70;52.20;;;;;;5128674;27;20031;-65
2022/05/23 10:19:36;;;;;;;6.88;3.10;;;23.60;52.20;;;;;;5125756;27;20031;-65
2022/05/23 10:22:21;;;;;;;7.75;3.08;;;23.50;52.30;;;;;;5131897;27;20015;-65
2022/05/23 10:24:57;;;;;;;6.32;3.40;;;23.50;52.30;;;;;;5126902;27;20171;-65
2022/05/23 10:27:35;;;;;;;8.45;3.45;;;23.40;52.20;;;;;;5126605;27;20440;-65
2022/05/23 10:30:05;;;;;;;5.90;3.10;;;23.30;52.40;;;;;;5126432;27;20022;-65
2022/05/23 10:32:52;;;;;;;8.35;2.92;;;23.30;52.50;;;;;;5111994;27;20027;-65
2022/05/23 10:35:27;;;;;;;7.15;3.28;;;23.30;52.70;;;;;;5137727;27;20035;-66
2022/05/23 10:42:06;;;;;;;7.32;3.25;;;23.40;52.90;;;;;;5131423;27;20035;-65
2022/05/23 10:43:25;;;;;;;7.88;4.00;;;23.40;53.10;;;;;;5116266;28;20038;-65
2022/05/23 10:46:01;;;;;;;12.63;4.20;;;23.50;53.00;;;;;;5116121;28;20412;-65
2022/05/23 10:48:50;;;;;;;8.10;3.58;;;23.60;52.70;;;;;;5116980;28;20042;-66
2022/05/23 10:51:30;;;;;;;6.88;3.30;;;23.80;52.60;;;;;;5117247;28;20062;-65
2022/05/23 10:53:55;;;;;;;11.80;3.47;;;23.80;52.40;;;;;;5115851;28;20070;-65
2022/05/23 10:57:03;;;;;;;6.80;3.30;;;23.80;52.50;;;;;;5118889;27;20055;-65
2022/05/23 10:59:37;;;;;;;7.68;4.32;;;23.70;52.50;;;;;;5131982;27;20027;-65
2022/05/23 11:02:31;;;;;;;9.65;4.15;;;23.60;52.60;;;;;;5136667;27;20118;-66
2022/05/23 11:05:10;;;;;;;8.77;3.67;;;23.50;52.90;;;;;;5136784;27;20030;-66
2022/05/23 11:08:33;;;;;;;9.38;3.78;;;23.50;53.00;;;;;;5137501;27;20031;-65
2022/05/23 11:11:16;;;;;;;7.18;4.20;;;23.50;53.10;;;;;;5078549;28;20032;-65
2022/05/23 11:14:08;;;;;;;9.13;3.92;;;23.40;53.30;;;;;;5094474;28;20043;-65
2022/05/23 11:16:40;;;;;;;8.25;3.80;;;23.40;53.50;;;;;;5067085;28;20032;-65
2022/05/23 11:19:24;;;;;;;7.82;3.95;;;23.40;53.60;;;;;;5092480;28;20450;-65
2022/05/23 11:22:05;;;;;;;8.95;4.13;;;23.50;53.70;;;;;;5073905;28;20048;-65
2022/05/23 11:25:03;;;;;;;9.10;3.97;;;23.60;53.70;;;;;;5073372;28;20046;-65
2022/05/23 11:36:06;;;;;;;7.28;3.72;;;24.60;52.90;;;;;;5094408;28;20381;-65
2022/05/23 11:38:32;;;;;;;7.28;3.50;;;25.10;52.50;;;;;;5093873;28;20108;-65
2022/05/23 11:41:08;;;;;;;8.57;4.07;;;25.50;51.90;;;;;;5081719;28;20032;-65
2022/05/23 11:43:35;;;;;;;8.93;3.35;;;25.70;51.20;;;;;;5115666;28;20020;-65
2022/05/23 11:46:03;;;;;;;8.13;3.50;;;25.70;51.20;;;;;;5115103;28;20031;-65
2022/05/23 11:51:23;;;;;;;5.90;2.50;;;25.80;50.90;;;;;;5116211;28;20036;-65
2022/05/23 11:54:09;;;;;;;6.55;2.60;;;26.00;50.80;;;;;;5110733;28;20047;-65
2022/05/23 11:57:31;;;;;;;7.53;2.38;;;26.10;49.90;;;;;;5114832;28;20043;-65
2022/05/23 11:59:58;;;;;;;8.35;2.60;;;26.10;49.70;;;;;;5073489;28;20064;-65
2022/05/23 12:02:27;;;;;;;7.25;2.67;;;26.10;49.80;;;;;;5073915;28;20460;-65
2022/05/23 12:04:54;;;;;;;5.60;2.47;;;26.10;49.50;;;;;;5077044;28;20128;-65
2022/05/23 12:07:34;;;;;;;7.13;2.42;;;26.10;49.30;;;;;;5093804;28;20050;-65
2022/05/23 12:10:21;;;;;;;7.55;2.63;;;26.10;49.30;;;;;;5093885;28;20043;-65
2022/05/23 12:12:53;;;;;;;7.95;2.38;;;26.00;49.20;;;;;;5093360;28;20433;-65
2022/05/23 12:15:43;;;;;;;5.78;2.22;;;26.10;50.00;;;;;;5093930;28;20036;-65
2022/05/23 12:18:09;;;;;;;8.82;2.55;;;26.10;49.30;;;;;;5092826;28;20380;-65
2022/05/23 12:20:45;;;;;;;6.20;2.40;;;26.00;49.20;;;;;;5092584;28;20047;-65
2022/05/23 12:23:16;;;;;;;8.85;2.60;;;26.00;49.30;;;;;;5076511;28;20051;-65
2022/05/23 12:25:42;;;;;;;7.97;2.83;;;25.90;49.40;;;;;;5093831;28;20043;-67
2022/05/23 12:28:14;;;;;;;9.73;3.80;;;25.90;49.50;;;;;;5093470;28;20044;-64
2022/05/23 12:31:07;;;;;;;7.57;3.25;;;25.90;49.60;;;;;;5105963;28;20476;-64
2022/05/23 12:33:33;;;;;;;5.15;2.38;;;25.80;49.50;;;;;;5114381;28;20449;-64
2022/05/23 12:36:09;;;;;;;7.90;2.75;;;25.80;49.50;;;;;;5114709;28;20027;-65
2022/05/23 12:39:01;;;;;;;7.38;3.10;;;25.70;49.30;;;;;;5115001;28;20062;-64
2022/05/23 12:42:14;;;;;;;6.93;2.60;;;25.70;49.40;;;;;;5115165;28;20038;-65
2022/05/23 12:45:19;;;;;;;6.65;2.72;;;25.70;49.50;;;;;;5108519;28;20039;-66
2022/05/23 12:47:57;;;;;;;7.15;2.58;;;25.60;49.40;;;;;;5133453;27;20039;-66
2022/05/23 12:50:32;;;;;;;5.30;2.53;;;25.60;49.40;;;;;;5135972;27;20019;-66
2022/05/23 12:53:28;;;;;;;6.28;2.40;;;25.50;49.30;;;;;;5135834;27;20043;-66
2022/05/23 12:56:22;;;;;;;6.35;2.55;;;25.40;49.40;;;;;;5134414;27;20119;-66
2022/05/23 12:59:05;;;;;;;8.00;2.50;;;25.30;49.40;;;;;;5135451;27;20388;-66
2022/05/23 13:01:36;;;;;;;7.00;3.13;;;25.30;49.70;;;;;;5134234;28;20035;-66
2022/05/23 13:04:17;;;;;;;;;;;25.20;49.90;;;;;;5135966;27;20039;-66
2022/05/23 13:07:01;;;;;;;6.03;2.50;;;25.10;50.00;;;;;;5118608;28;19907;-66
2022/05/23 13:09:57;;;;;;;6.10;2.63;;;25.10;50.20;;;;;;5115082;28;20463;-66
2022/05/23 13:12:29;;;;;;;6.57;2.55;;;24.90;50.40;;;;;;5115013;28;20050;-66
2022/05/23 13:14:57;;;;;;;7.03;2.75;;;24.90;50.70;;;;;;5114123;28;20456;-66
2022/05/23 13:17:28;;;;;;;7.53;2.78;;;24.90;50.70;;;;;;5115058;28;20023;-66
2022/05/23 13:22:38;;;;;;;6.45;2.85;;;24.80;50.90;;;;;;5115169;28;20084;-66
2022/05/23 13:25:04;;;;;;;6.82;2.63;;;24.80;51.60;;;;;;5114069;28;20031;-66
2022/05/23 13:27:33;;;;;;;6.25;2.78;;;24.70;51.10;;;;;;5113498;28;20050;-66
2022/05/23 13:30:09;;;;;;;6.00;3.00;;;24.70;51.40;;;;;;5113117;28;20035;-66
2022/05/23 13:32:35;;;;;;;8.43;3.30;;;24.60;51.60;;;;;;5114622;28;20032;-66
2022/05/23 13:35:14;;;;;;;7.35;2.80;;;24.50;51.70;;;;;;5121175;28;20030;-69
2022/05/23 13:37:40;;;;;;;6.95;3.33;;;24.50;52.00;;;;;;5122158;28;20058;-66
2022/05/23 13:40:08;;;;;;;5.38;2.15;;;24.40;52.00;;;;;;5114360;28;20028;-67
2022/05/23 13:42:34;;;;;;;5.63;2.30;;;24.30;52.00;;;;;;5116638;28;20044;-66
2022/05/23 13:45:18;;;;;;;6.28;2.22;;;24.30;51.90;;;;;;5136430;27;20027;-66
2022/05/23 13:48:11;;;;;;;6.35;2.58;;;24.20;51.90;;;;;;5115424;27;20036;-66
2022/05/23 13:50:42;;;;;;;4.70;2.38;;;24.20;51.90;;;;;;5123674;27;20127;-66
2022/05/23 13:53:15;;;;;;;5.82;2.20;;;24.20;52.10;;;;;;5127052;27;20317;-67
2022/05/23 13:55:46;;;;;;;5.72;2.17;;;24.10;52.50;;;;;;5123795;27;20140;-66
2022/05/23 13:58:13;;;;;;;5.78;2.05;;;24.10;52.90;;;;;;5118432;27;20016;-66
2022/05/23 14:00:43;;;;;;;5.78;2.28;;;24.10;53.00;;;;;;5117739;28;20105;-66
2022/05/23 14:03:47;;;;;;;8.23;2.40;;;24.10;53.30;;;;;;5118528;27;20085;-67
2022/05/23 14:06:17;;;;;;;7.32;2.60;;;24.10;53.30;;;;;;5112356;28;20039;-67
2022/05/23 14:08:54;;;;;;;6.03;2.67;;;24.00;53.30;;;;;;5116820;28;20037;-66
2022/05/23 14:11:30;;;;;;;6.25;2.83;;;24.00;53.80;;;;;;5117067;27;20452;-66
2022/05/23 14:14:01;;;;;;;8.27;2.88;;;24.00;54.60;;;;;;5134357;27;20035;-67
2022/05/23 14:16:27;;;;;;;;;;;23.90;55.50;;;;;;5120452;27;20355;-66
2022/05/23 14:19:19;;;;;;;6.90;2.88;;;23.90;55.40;;;;;;5120358;27;19957;-66